createdAt,value
2019-05-15T00:00:38.617Z,6.6
2019-05-15T00:05:42.502Z,6.5
2019-05-15T00:10:52.484Z,6.5
2019-05-15T00:16:02.426Z,6.4
2019-05-15T00:21:09.154Z,6.3
2019-05-15T00:26:12.424Z,6.2
2019-05-15T00:31:18.564Z,6.2
2019-05-15T00:36:22.418Z,6.3
2019-05-15T00:41:27.855Z,6.2
2019-05-15T00:46:38.377Z,6.1
2019-05-15T00:51:48.651Z,6
2019-05-15T00:56:52.562Z,6
2019-05-15T01:01:59.394Z,6.1
2019-05-15T01:07:02.400Z,5.8
2019-05-15T01:12:09.021Z,5.8
2019-05-15T01:17:18.441Z,5.7
2019-05-15T01:22:28.615Z,5.7
2019-05-15T01:27:32.393Z,5.7
2019-05-15T01:32:39.368Z,5.6
2019-05-15T01:37:42.381Z,5.5
2019-05-15T01:42:47.356Z,5.5
2019-05-15T01:47:58.571Z,5.5
2019-05-15T01:53:08.169Z,5.4
2019-05-15T01:58:12.355Z,5.4
2019-05-15T02:03:18.325Z,5.4
2019-05-15T02:08:22.393Z,5.3
2019-05-15T02:13:28.185Z,5.4
2019-05-15T02:18:39.059Z,5.4
2019-05-15T02:23:48.118Z,5.2
2019-05-15T02:28:52.349Z,5.2
2019-05-15T02:33:58.945Z,5.2
2019-05-15T02:39:02.369Z,5.2
2019-05-15T02:44:10.637Z,5.1
2019-05-15T02:54:10.187Z,5.2
2019-05-15T02:59:12.556Z,5
2019-05-15T03:04:19.885Z,5.1
2019-05-15T03:09:29.697Z,5
2019-05-15T03:14:39.798Z,5.1
2019-05-15T03:19:42.544Z,5.2
2019-05-15T03:24:50.151Z,5.3
2019-05-15T03:29:52.502Z,5.1
2019-05-15T03:35:04.047Z,5.2
2019-05-15T03:36:03.963Z,5.2
2019-05-15T03:40:10.125Z,5.4
2019-05-15T03:45:19.178Z,5.4
2019-05-15T03:50:22.526Z,5.3
2019-05-15T03:55:29.547Z,5.3
2019-05-15T04:00:32.498Z,5.4
2019-05-15T04:05:38.853Z,5.3
2019-05-15T04:10:48.700Z,5.4
2019-05-15T04:15:59.319Z,5.4
2019-05-15T04:21:02.492Z,5.6
2019-05-15T04:26:09.148Z,5.8
2019-05-15T04:31:12.508Z,5.9
2019-05-15T04:36:19.121Z,5.9
2019-05-15T04:41:22.440Z,6.3
2019-05-15T04:46:32.537Z,6
2019-05-15T04:51:42.536Z,6
2019-05-15T04:56:48.870Z,6.1
2019-05-15T05:02:11.582Z,6.1
2019-05-15T05:03:03.750Z,6.1
2019-05-15T05:06:58.647Z,6.4
2019-05-15T05:12:02.574Z,6.3
2019-05-15T05:17:12.409Z,6.7
2019-05-15T05:22:22.467Z,6.6
2019-05-15T05:27:28.816Z,6.7
2019-05-15T05:32:35.122Z,6.9
2019-05-15T05:37:38.844Z,7.2
2019-05-15T05:42:42.453Z,7.2
2019-05-15T05:47:52.382Z,7.4
2019-05-15T05:53:02.408Z,7.3
2019-05-15T05:58:08.142Z,7.6
2019-05-15T06:03:12.441Z,7.7
2019-05-15T06:08:19.432Z,8.1
2019-05-15T06:13:22.389Z,7.9
2019-05-15T06:23:24.779Z,8.4
2019-05-15T06:24:30.349Z,8.4
2019-05-15T06:28:28.904Z,8.5
2019-05-15T06:33:32.624Z,8.8
2019-05-15T06:38:42.565Z,9.1
2019-05-15T06:43:52.575Z,9.3
2019-05-15T06:48:58.053Z,10
2019-05-15T06:54:02.564Z,9.9
2019-05-15T06:59:08.658Z,11.2
2019-05-15T07:04:12.575Z,10.9
2019-05-15T07:09:22.813Z,12.2
2019-05-15T07:14:32.559Z,12.5
2019-05-15T07:19:39.206Z,11.8
2019-05-15T07:29:38.525Z,11.9
2019-05-15T07:34:42.867Z,13
2019-05-15T07:39:48.750Z,12.7
2019-05-15T07:44:58.769Z,12.8
2019-05-15T07:50:08.737Z,13.3
2019-05-15T07:55:12.908Z,13.4
2019-05-15T08:00:18.739Z,13
2019-05-15T08:05:22.833Z,13.3
2019-05-15T08:10:28.419Z,13
2019-05-15T08:15:38.195Z,12.7
2019-05-15T08:20:48.917Z,12.3
2019-05-15T08:25:52.851Z,12.7
2019-05-15T08:35:53.136Z,13
2019-05-15T08:40:59.176Z,13
2019-05-15T08:46:03.027Z,13.2
2019-05-15T08:51:13.037Z,13.4
2019-05-15T08:56:23.025Z,13.3
2019-05-15T09:01:28.740Z,13.3
2019-05-15T09:06:33.114Z,13.3
2019-05-15T09:11:38.897Z,13.7
2019-05-15T09:16:42.974Z,13.6
2019-05-15T09:21:53.106Z,14
2019-05-15T09:27:02.962Z,13.7
2019-05-15T09:32:08.640Z,13.9
2019-05-15T09:37:12.969Z,14.3
2019-05-15T09:42:18.099Z,14.4
2019-05-15T09:47:22.949Z,14.6
2019-05-15T09:52:29.790Z,15.2
2019-05-15T09:57:32.982Z,14.6
2019-05-15T10:02:39.316Z,15
2019-05-15T10:07:43.027Z,14.7
2019-05-15T10:12:49.432Z,14.9
2019-05-15T10:17:52.989Z,15
2019-05-15T10:22:58.987Z,15.8
2019-05-15T10:28:09.898Z,15
2019-05-15T10:33:19.533Z,14.9
2019-05-15T10:38:22.981Z,14.5
2019-05-15T10:43:28.726Z,14.6
2019-05-15T10:48:32.998Z,14.3
2019-05-15T10:53:39.056Z,14.6
2019-05-15T10:58:50.424Z,14.9
2019-05-15T11:03:58.805Z,14.6
2019-05-15T11:09:02.955Z,14.5
2019-05-15T11:14:09.041Z,15
2019-05-15T11:19:12.884Z,15.1
2019-05-15T11:24:19.463Z,14.9
2019-05-15T11:29:27.931Z,15.1
2019-05-15T11:34:38.364Z,14.9
2019-05-15T11:39:45.521Z,14.9
2019-05-15T11:44:48.468Z,14.9
2019-05-15T11:49:52.918Z,15.5
2019-05-15T11:54:58.906Z,14.9
2019-05-15T12:04:58.486Z,16.3
2019-05-15T12:10:03.061Z,15.9
2019-05-15T12:15:08.095Z,15.4
2019-05-15T12:20:19.272Z,15.7
2019-05-15T12:25:31.571Z,15.4
2019-05-15T12:30:33.017Z,15.8
2019-05-15T12:35:39.572Z,15
2019-05-15T12:36:56.581Z,15
2019-05-15T12:39:08.991Z,15
2019-05-15T12:59:51.451Z,14.8
2019-05-15T13:01:33.101Z,14.8
2019-05-15T13:06:49.052Z,14.6
2019-05-15T13:07:50.382Z,14.6
2019-05-15T13:11:48.463Z,14.7
2019-05-15T13:16:53.056Z,14.8
2019-05-15T13:21:58.060Z,14.9
2019-05-15T13:27:03.041Z,14.3
2019-05-15T13:32:12.936Z,14.5
2019-05-15T13:37:27.005Z,14.7
2019-05-15T13:42:28.118Z,14.5
2019-05-15T13:47:32.963Z,14.8
2019-05-15T13:52:39.252Z,13.4
2019-05-15T13:57:42.982Z,13
2019-05-15T14:02:53.005Z,12.6
2019-05-15T14:08:02.947Z,12.6
2019-05-15T14:13:07.942Z,12.6
2019-05-15T14:18:14.129Z,12.4
2019-05-15T14:23:18.555Z,12.5
2019-05-15T14:28:22.994Z,12.7
2019-05-15T14:33:33.027Z,13
2019-05-15T14:43:38.368Z,13.4
2019-05-15T14:48:43.379Z,13.7
2019-05-15T14:53:48.961Z,13.9
2019-05-15T14:58:58.634Z,13.7
2019-05-15T15:04:08.817Z,13.8
2019-05-15T15:09:13.078Z,14.1
2019-05-15T15:14:18.129Z,14.1
2019-05-15T15:19:23.093Z,14.3
2019-05-15T15:24:28.120Z,14.1
2019-05-15T15:29:38.790Z,14.1
2019-05-15T15:34:48.122Z,14
2019-05-15T15:39:53.138Z,14.1
2019-05-15T15:44:58.260Z,13.9
2019-05-15T15:50:03.125Z,14
2019-05-15T15:55:08.791Z,13.5
2019-05-15T16:00:18.490Z,13.6
2019-05-15T16:05:29.047Z,13.6
2019-05-15T16:10:33.078Z,13.6
2019-05-15T16:15:38.600Z,13.6
2019-05-15T16:20:43.143Z,13.6
2019-05-15T16:25:48.937Z,13.5
2019-05-15T16:30:53.145Z,13.5
2019-05-15T16:36:03.063Z,13.3
2019-05-15T16:41:13.254Z,13.2
2019-05-15T16:46:19.171Z,13.2
2019-05-15T16:56:18.915Z,13.2
2019-05-15T17:01:23.330Z,12.9
2019-05-15T17:06:28.458Z,12.8
2019-05-15T17:11:38.476Z,12.8
2019-05-15T17:16:48.237Z,12.7
2019-05-15T17:21:53.240Z,12.3
2019-05-15T17:26:59.536Z,12.4
2019-05-15T17:32:03.283Z,12.2
2019-05-15T17:37:08.374Z,12.1
2019-05-15T17:42:13.326Z,12.1
2019-05-15T17:47:18.276Z,12.1
2019-05-15T17:52:23.246Z,11.9
2019-05-15T17:57:28.664Z,11.9
2019-05-15T18:02:33.298Z,11.7
2019-05-15T18:12:33.293Z,11
2019-05-15T18:17:39.121Z,10.9
2019-05-15T18:22:43.327Z,10.6
2019-05-15T18:27:53.344Z,10.5
2019-05-15T18:33:03.319Z,10.4
2019-05-15T18:38:08.708Z,10.5
2019-05-15T18:43:13.501Z,10.6
2019-05-15T18:48:18.540Z,10.6
2019-05-15T18:53:23.312Z,10.7
2019-05-15T18:58:33.308Z,10.6
2019-05-15T19:03:43.281Z,10.6
2019-05-15T19:08:48.333Z,10.8
2019-05-15T19:13:53.303Z,10.7
2019-05-15T19:23:53.571Z,10.6
2019-05-15T19:28:59.104Z,10.7
2019-05-15T19:34:03.514Z,10.7
2019-05-15T19:39:13.445Z,10.7
2019-05-15T19:44:23.465Z,10.7
2019-05-15T19:49:28.460Z,10.5
2019-05-15T19:54:33.459Z,10.5
2019-05-15T19:59:38.420Z,10.6
2019-05-15T20:04:43.426Z,10.6
2019-05-15T20:09:53.484Z,10.7
2019-05-15T20:15:03.469Z,10.6
2019-05-15T20:20:08.815Z,10.6
2019-05-15T20:25:13.470Z,10.6
2019-05-15T20:30:18.428Z,10.6
2019-05-15T20:35:23.437Z,10.6
2019-05-15T20:40:33.434Z,10.6
2019-05-15T20:45:43.644Z,10.6
2019-05-15T20:50:48.488Z,10.7
2019-05-15T20:55:53.465Z,10.6
2019-05-15T21:00:59.062Z,10.6
2019-05-15T21:06:03.452Z,10.7
2019-05-15T21:11:13.480Z,10.8
2019-05-15T21:16:27.526Z,10.7
2019-05-15T21:26:23.653Z,11
2019-05-15T21:31:28.694Z,10.9
2019-05-15T21:36:33.665Z,10.8
2019-05-15T21:41:43.663Z,10.7
2019-05-15T21:46:53.603Z,10.7
2019-05-15T21:51:58.640Z,10.5
2019-05-15T21:57:13.022Z,10.6
2019-05-15T21:58:18.548Z,10.6
2019-05-15T22:02:08.606Z,10.4
2019-05-15T22:07:13.592Z,10.4
2019-05-15T22:12:23.583Z,10.5
2019-05-15T22:17:33.586Z,10.6
2019-05-15T22:22:38.602Z,10.6
2019-05-15T22:27:43.586Z,10.6
2019-05-15T22:32:49.384Z,10.6
2019-05-15T22:37:53.562Z,10.6
2019-05-15T22:43:03.536Z,10.6
2019-05-15T22:48:13.550Z,10.6
2019-05-15T22:53:18.736Z,10.6
2019-05-15T22:58:23.527Z,10.5
2019-05-15T23:03:28.512Z,10.5
2019-05-15T23:08:33.486Z,10.4
2019-05-15T23:18:33.704Z,10.4
2019-05-15T23:23:38.734Z,10
2019-05-15T23:28:43.696Z,9.8
2019-05-15T23:33:53.660Z,9.8
2019-05-15T23:39:03.689Z,9.6
2019-05-15T23:44:08.691Z,9.6
2019-05-15T23:49:13.636Z,9.6
2019-05-15T23:54:18.780Z,9.7
2019-05-15T23:59:23.716Z,9.6
